PAWO2: Black Bear Creek, Pawnee, OK

                                SHEF ID:       PAWO2     Black Bear Creek at Pawnee, OK
STATION TYPE:
Regulating: Stage = 17.00, Flow = 9631

PRECIP STAGE RIV-FLOW BAT-LOAD
in ft cfs volt
Ccp-Rev Ccp-Rev Ccp-Rev Ccp-Rev
(America/Chicago)
04/25 00:00 ---- 10.99 4779 12.37
04/25 01:00 ---- 10.95 4750 12.36
04/25 02:00 ---- 10.84 4672 12.34
04/25 03:00 ---- 10.74 4601 12.31
04/25 04:00 ---- 10.60 4492 12.31
04/25 05:00 ---- 10.45 4372 12.28
04/25 06:00 ---- 10.28 4237 12.25
04/25 07:00 ---- 10.03 4042 12.23
04/25 08:00 ---- 9.85 3904 12.34
04/25 09:00 ---- 9.57 3694 12.76
04/25 10:00 ---- 9.29 3488 13.03
04/25 11:00 ---- 8.94 3237 13.62
04/25 12:00 ---- 8.68 3055 13.95
04/25 13:00 ---- 8.36 2838 13.90
04/25 14:00 ---- 8.08 2653 13.84
04/25 15:00 ---- 7.84 2499 13.80
04/25 16:00 ---- 7.59 2342 13.32
04/25 17:00 ---- 7.39 2219 13.39
04/25 18:00 ---- 7.18 2093 13.35
04/25 19:00 ---- 7.05 2017 13.38
04/25 20:00 ---- 6.91 1936 13.16
04/25 21:00 ---- 6.83 1890 12.57
04/25 22:00 ---- 6.67 1800 12.34
04/25 23:00 ---- 6.62 1773 12.40
Data processed at Sun 26Apr2026 04:36 GMT

NOTICE: If you are parsing this page

Please convert to using our Data API. Starting early 2026 we will be migrating to: https://water.usace.army.mil with modern pages rendered in JavaScript. When this migration completes you will no longer be able to scrape this page! CWMSDataAPI (CDA)

Timeseries IDs (TSIDs)

TSIDs used from left to right in the data table
PAWN.Precip-Inc.Total.1Hour.1Hour.Ccp-Rev
PAWN.Stage.Inst.1Hour.0.Ccp-Rev
PAWN.Flow.Inst.1Hour.0.Ccp-Rev
PAWN.Volt-Battery Load.Inst.1Hour.0.Ccp-Rev

                            

All information presented herein is the property of the government of the United States of America and may be revised or deleted at any time without prior notice. Dissemination of this information without the expressed written consent of the Public Affairs Office, Tulsa District U.S. Army Corps of Engineers is strictly prohibited. These data are gathered electronically and, as presented, have NOT undergone any form of quality control. These data are NOT guaranteed to be valid or correct.